sensor_id;sensor_type;location;lat;lon;timestamp;temperature;humidity
71627;DHT22;59475;52.464;13.590;2022-09-09T00:02:08;13.94;98.03
71627;DHT22;59475;52.464;13.590;2022-09-09T00:04:37;13.94;98.17
71627;DHT22;59475;52.464;13.590;2022-09-09T00:08:06;13.91;98.15
71627;DHT22;59475;52.464;13.590;2022-09-09T00:10:27;13.87;98.14
71627;DHT22;59475;52.464;13.590;2022-09-09T00:12:55;13.85;98.20
71627;DHT22;59475;52.464;13.590;2022-09-09T00:15:25;13.83;98.40
71627;DHT22;59475;52.464;13.590;2022-09-09T00:18:17;13.84;98.47
71627;DHT22;59475;52.464;13.590;2022-09-09T00:20:48;13.81;98.49
71627;DHT22;59475;52.464;13.590;2022-09-09T00:23:28;13.81;98.55
71627;DHT22;59475;52.464;13.590;2022-09-09T00:26:02;13.78;98.49
71627;DHT22;59475;52.464;13.590;2022-09-09T00:28:30;13.80;98.44
71627;DHT22;59475;52.464;13.590;2022-09-09T00:31:12;13.77;98.30
71627;DHT22;59475;52.464;13.590;2022-09-09T00:33:37;13.76;98.51
71627;DHT22;59475;52.464;13.590;2022-09-09T00:36:12;13.71;98.37
71627;DHT22;59475;52.464;13.590;2022-09-09T00:38:51;13.74;98.35
71627;DHT22;59475;52.464;13.590;2022-09-09T00:43:57;13.70;98.33
71627;DHT22;59475;52.464;13.590;2022-09-09T00:46:33;13.66;98.21
71627;DHT22;59475;52.464;13.590;2022-09-09T00:52:11;13.57;98.16
71627;DHT22;59475;52.464;13.590;2022-09-09T00:57:37;13.55;98.27
71627;DHT22;59475;52.464;13.590;2022-09-09T01:05:44;13.50;98.11
71627;DHT22;59475;52.464;13.590;2022-09-09T01:08:36;13.43;98.03
71627;DHT22;59475;52.464;13.590;2022-09-09T01:11:07;13.42;98.06
71627;DHT22;59475;52.464;13.590;2022-09-09T01:13:35;13.39;98.19
71627;DHT22;59475;52.464;13.590;2022-09-09T01:16:04;13.36;98.14
71627;DHT22;59475;52.464;13.590;2022-09-09T01:18:33;13.39;98.15
71627;DHT22;59475;52.464;13.590;2022-09-09T01:21:03;13.39;98.06
71627;DHT22;59475;52.464;13.590;2022-09-09T01:28:38;13.38;98.35
71627;DHT22;59475;52.464;13.590;2022-09-09T01:31:05;13.36;98.39
71627;DHT22;59475;52.464;13.590;2022-09-09T01:33:32;13.32;98.47
71627;DHT22;59475;52.464;13.590;2022-09-09T01:36:00;13.25;98.16
71627;DHT22;59475;52.464;13.590;2022-09-09T01:38:29;13.21;98.41
71627;DHT22;59475;52.464;13.590;2022-09-09T01:40:55;13.15;98.22
71627;DHT22;59475;52.464;13.590;2022-09-09T01:43:21;13.09;98.17
71627;DHT22;59475;52.464;13.590;2022-09-09T01:45:49;13.05;98.12
71627;DHT22;59475;52.464;13.590;2022-09-09T01:48:19;12.98;98.23
71627;DHT22;59475;52.464;13.590;2022-09-09T01:50:45;13.02;98.58
71627;DHT22;59475;52.464;13.590;2022-09-09T01:53:11;13.08;98.49
71627;DHT22;59475;52.464;13.590;2022-09-09T01:55:39;13.04;98.22
71627;DHT22;59475;52.464;13.590;2022-09-09T02:00:31;12.95;98.09
71627;DHT22;59475;52.464;13.590;2022-09-09T02:03:23;12.91;97.98
71627;DHT22;59475;52.464;13.590;2022-09-09T02:06:00;12.87;97.89
71627;DHT22;59475;52.464;13.590;2022-09-09T02:11:25;12.83;98.01
71627;DHT22;59475;52.464;13.590;2022-09-09T02:13:51;12.77;97.86
71627;DHT22;59475;52.464;13.590;2022-09-09T02:16:28;12.73;98.00
71627;DHT22;59475;52.464;13.590;2022-09-09T02:19:20;12.65;97.94
71627;DHT22;59475;52.464;13.590;2022-09-09T02:21:52;12.67;97.94
71627;DHT22;59475;52.464;13.590;2022-09-09T02:24:18;12.70;98.03
71627;DHT22;59475;52.464;13.590;2022-09-09T02:26:45;12.70;98.29
71627;DHT22;59475;52.464;13.590;2022-09-09T02:29:17;12.74;98.15
71627;DHT22;59475;52.464;13.590;2022-09-09T02:31:45;12.74;98.21
71627;DHT22;59475;52.464;13.590;2022-09-09T02:34:13;12.71;98.19
71627;DHT22;59475;52.464;13.590;2022-09-09T02:36:40;12.74;98.18
71627;DHT22;59475;52.464;13.590;2022-09-09T02:39:07;12.79;98.35
71627;DHT22;59475;52.464;13.590;2022-09-09T02:41:36;12.79;98.37
71627;DHT22;59475;52.464;13.590;2022-09-09T02:44:05;12.81;98.51
71627;DHT22;59475;52.464;13.590;2022-09-09T02:47:02;12.84;98.60
71627;DHT22;59475;52.464;13.590;2022-09-09T02:52:50;12.87;98.72
71627;DHT22;59475;52.464;13.590;2022-09-09T02:58:03;12.79;98.50
71627;DHT22;59475;52.464;13.590;2022-09-09T03:00:31;12.76;98.45
71627;DHT22;59475;52.464;13.590;2022-09-09T03:02:58;12.76;98.45
71627;DHT22;59475;52.464;13.590;2022-09-09T03:05:24;12.76;98.46
71627;DHT22;59475;52.464;13.590;2022-09-09T03:07:49;12.71;98.29
71627;DHT22;59475;52.464;13.590;2022-09-09T03:10:15;12.67;98.16
71627;DHT22;59475;52.464;13.590;2022-09-09T03:12:41;12.67;98.19
71627;DHT22;59475;52.464;13.590;2022-09-09T03:15:07;12.67;98.43
71627;DHT22;59475;52.464;13.590;2022-09-09T03:17:32;12.71;98.53
71627;DHT22;59475;52.464;13.590;2022-09-09T03:19:57;12.71;98.67
71627;DHT22;59475;52.464;13.590;2022-09-09T03:22:24;12.74;98.68
71627;DHT22;59475;52.464;13.590;2022-09-09T03:24:50;12.70;98.64
71627;DHT22;59475;52.464;13.590;2022-09-09T03:27:16;12.65;98.46
71627;DHT22;59475;52.464;13.590;2022-09-09T03:29:42;12.61;98.52
71627;DHT22;59475;52.464;13.590;2022-09-09T03:32:07;12.56;98.58
71627;DHT22;59475;52.464;13.590;2022-09-09T03:34:35;12.60;99.23
71627;DHT22;59475;52.464;13.590;2022-09-09T03:37:00;12.67;99.35
71627;DHT22;59475;52.464;13.590;2022-09-09T03:39:25;12.70;99.18
71627;DHT22;59475;52.464;13.590;2022-09-09T03:41:51;12.76;99.47
71627;DHT22;59475;52.464;13.590;2022-09-09T03:44:16;12.84;99.57
71627;DHT22;59475;52.464;13.590;2022-09-09T03:46:41;12.80;99.44
71627;DHT22;59475;52.464;13.590;2022-09-09T03:49:07;12.87;99.46
71627;DHT22;59475;52.464;13.590;2022-09-09T03:51:33;12.85;99.31
71627;DHT22;59475;52.464;13.590;2022-09-09T03:54:02;12.84;99.33
71627;DHT22;59475;52.464;13.590;2022-09-09T03:56:30;12.84;99.23
71627;DHT22;59475;52.464;13.590;2022-09-09T03:58:55;12.81;99.24
71627;DHT22;59475;52.464;13.590;2022-09-09T04:01:20;12.83;99.15
71627;DHT22;59475;52.464;13.590;2022-09-09T04:03:46;12.81;98.94
71627;DHT22;59475;52.464;13.590;2022-09-09T04:06:12;12.76;98.89
71627;DHT22;59475;52.464;13.590;2022-09-09T04:08:39;12.73;98.84
71627;DHT22;59475;52.464;13.590;2022-09-09T04:11:05;12.64;98.78
71627;DHT22;59475;52.464;13.590;2022-09-09T04:13:32;12.67;98.79
71627;DHT22;59475;52.464;13.590;2022-09-09T04:15:59;12.61;98.75
71627;DHT22;59475;52.464;13.590;2022-09-09T04:18:25;12.63;98.94
71627;DHT22;59475;52.464;13.590;2022-09-09T04:20:52;12.64;98.98
71627;DHT22;59475;52.464;13.590;2022-09-09T04:23:18;12.60;98.89
71627;DHT22;59475;52.464;13.590;2022-09-09T04:25:48;12.59;98.83
71627;DHT22;59475;52.464;13.590;2022-09-09T04:28:15;12.54;98.82
71627;DHT22;59475;52.464;13.590;2022-09-09T04:30:41;12.52;98.81
71627;DHT22;59475;52.464;13.590;2022-09-09T04:33:07;12.47;98.69
71627;DHT22;59475;52.464;13.590;2022-09-09T04:35:33;12.42;98.55
71627;DHT22;59475;52.464;13.590;2022-09-09T04:37:59;12.37;98.50
71627;DHT22;59475;52.464;13.590;2022-09-09T04:40:24;12.36;98.54
71627;DHT22;59475;52.464;13.590;2022-09-09T04:42:50;12.36;98.57
71627;DHT22;59475;52.464;13.590;2022-09-09T04:45:15;12.29;98.37
71627;DHT22;59475;52.464;13.590;2022-09-09T04:47:41;12.24;98.33
71627;DHT22;59475;52.464;13.590;2022-09-09T04:50:07;12.22;98.34
71627;DHT22;59475;52.464;13.590;2022-09-09T04:52:34;12.22;98.62
71627;DHT22;59475;52.464;13.590;2022-09-09T04:55:00;12.22;98.72
71627;DHT22;59475;52.464;13.590;2022-09-09T04:57:26;12.32;98.76
71627;DHT22;59475;52.464;13.590;2022-09-09T04:59:51;12.32;98.68
71627;DHT22;59475;52.464;13.590;2022-09-09T05:02:16;12.35;98.60
71627;DHT22;59475;52.464;13.590;2022-09-09T05:04:42;12.39;98.59
71627;DHT22;59475;52.464;13.590;2022-09-09T05:07:07;12.42;98.58
71627;DHT22;59475;52.464;13.590;2022-09-09T05:09:33;12.46;98.80
71627;DHT22;59475;52.464;13.590;2022-09-09T05:11:58;12.53;98.83
71627;DHT22;59475;52.464;13.590;2022-09-09T05:14:24;12.64;98.93
71627;DHT22;59475;52.464;13.590;2022-09-09T05:16:49;12.70;99.00
71627;DHT22;59475;52.464;13.590;2022-09-09T05:19:15;12.77;99.01
71627;DHT22;59475;52.464;13.590;2022-09-09T05:21:40;12.84;99.02
71627;DHT22;59475;52.464;13.590;2022-09-09T05:24:06;12.94;98.98
71627;DHT22;59475;52.464;13.590;2022-09-09T05:26:32;13.04;99.10
71627;DHT22;59475;52.464;13.590;2022-09-09T05:28:57;13.12;99.10
71627;DHT22;59475;52.464;13.590;2022-09-09T05:31:24;13.26;99.16
71627;DHT22;59475;52.464;13.590;2022-09-09T05:33:54;13.36;99.11
71627;DHT22;59475;52.464;13.590;2022-09-09T05:36:21;13.49;99.17
71627;DHT22;59475;52.464;13.590;2022-09-09T05:38:47;13.57;99.19
71627;DHT22;59475;52.464;13.590;2022-09-09T05:41:14;13.70;99.12
71627;DHT22;59475;52.464;13.590;2022-09-09T05:43:43;13.78;99.09
71627;DHT22;59475;52.464;13.590;2022-09-09T05:46:20;13.91;99.07
71627;DHT22;59475;52.464;13.590;2022-09-09T05:48:47;14.01;99.03
71627;DHT22;59475;52.464;13.590;2022-09-09T05:51:15;14.11;98.66
71627;DHT22;59475;52.464;13.590;2022-09-09T05:53:42;14.15;98.72
71627;DHT22;59475;52.464;13.590;2022-09-09T05:56:19;14.26;98.33
71627;DHT22;59475;52.464;13.590;2022-09-09T05:58:45;14.26;98.05
71627;DHT22;59475;52.464;13.590;2022-09-09T06:01:16;14.35;98.08
71627;DHT22;59475;52.464;13.590;2022-09-09T06:03:44;14.33;97.18
71627;DHT22;59475;52.464;13.590;2022-09-09T06:06:12;14.39;97.33
71627;DHT22;59475;52.464;13.590;2022-09-09T06:08:39;14.45;97.11
71627;DHT22;59475;52.464;13.590;2022-09-09T06:13:31;14.63;97.38
71627;DHT22;59475;52.464;13.590;2022-09-09T06:15:56;14.70;97.13
71627;DHT22;59475;52.464;13.590;2022-09-09T06:18:22;14.80;96.35
71627;DHT22;59475;52.464;13.590;2022-09-09T06:21:05;14.88;95.11
71627;DHT22;59475;52.464;13.590;2022-09-09T06:23:32;15.06;96.18
71627;DHT22;59475;52.464;13.590;2022-09-09T06:26:09;15.18;97.32
71627;DHT22;59475;52.464;13.590;2022-09-09T06:28:36;15.51;98.13
71627;DHT22;59475;52.464;13.590;2022-09-09T06:31:04;15.76;97.83
71627;DHT22;59475;52.464;13.590;2022-09-09T06:33:35;16.16;97.67
71627;DHT22;59475;52.464;13.590;2022-09-09T06:36:02;16.37;93.56
71627;DHT22;59475;52.464;13.590;2022-09-09T06:38:28;16.65;94.26
71627;DHT22;59475;52.464;13.590;2022-09-09T06:40:55;16.99;92.19
71627;DHT22;59475;52.464;13.590;2022-09-09T06:43:21;17.40;91.64
71627;DHT22;59475;52.464;13.590;2022-09-09T06:46:08;17.72;87.70
71627;DHT22;59475;52.464;13.590;2022-09-09T06:48:35;18.02;88.75
71627;DHT22;59475;52.464;13.590;2022-09-09T06:51:13;18.33;86.30
71627;DHT22;59475;52.464;13.590;2022-09-09T06:53:40;18.71;89.60
71627;DHT22;59475;52.464;13.590;2022-09-09T06:56:23;19.19;90.64
71627;DHT22;59475;52.464;13.590;2022-09-09T06:58:50;19.51;86.00
71627;DHT22;59475;52.464;13.590;2022-09-09T07:01:18;19.50;84.46
71627;DHT22;59475;52.464;13.590;2022-09-09T07:03:52;19.38;85.77
71627;DHT22;59475;52.464;13.590;2022-09-09T07:06:23;19.37;83.13
71627;DHT22;59475;52.464;13.590;2022-09-09T07:08:50;19.46;80.57
71627;DHT22;59475;52.464;13.590;2022-09-09T07:11:16;19.67;80.11
71627;DHT22;59475;52.464;13.590;2022-09-09T07:13:42;19.74;78.93
71627;DHT22;59475;52.464;13.590;2022-09-09T07:16:12;19.68;79.82
71627;DHT22;59475;52.464;13.590;2022-09-09T07:18:39;19.88;85.87
71627;DHT22;59475;52.464;13.590;2022-09-09T07:21:04;20.16;82.82
71627;DHT22;59475;52.464;13.590;2022-09-09T07:23:31;20.22;78.92
71627;DHT22;59475;52.464;13.590;2022-09-09T07:25:57;20.15;78.79
71627;DHT22;59475;52.464;13.590;2022-09-09T07:28:23;20.41;86.58
71627;DHT22;59475;52.464;13.590;2022-09-09T07:30:59;21.05;90.93
71627;DHT22;59475;52.464;13.590;2022-09-09T07:33:28;21.36;82.71
71627;DHT22;59475;52.464;13.590;2022-09-09T07:36:06;21.54;74.12
71627;DHT22;59475;52.464;13.590;2022-09-09T07:38:37;21.88;81.96
71627;DHT22;59475;52.464;13.590;2022-09-09T07:41:08;22.23;81.82
71627;DHT22;59475;52.464;13.590;2022-09-09T07:43:45;21.87;70.57
71627;DHT22;59475;52.464;13.590;2022-09-09T07:46:12;21.78;73.68
71627;DHT22;59475;52.464;13.590;2022-09-09T07:48:39;21.93;71.82
71627;DHT22;59475;52.464;13.590;2022-09-09T07:51:11;21.90;75.03
71627;DHT22;59475;52.464;13.590;2022-09-09T07:53:37;22.52;73.94
71627;DHT22;59475;52.464;13.590;2022-09-09T07:56:09;22.77;66.91
71627;DHT22;59475;52.464;13.590;2022-09-09T07:58:37;22.66;66.45
71627;DHT22;59475;52.464;13.590;2022-09-09T08:01:10;22.90;70.82
71627;DHT22;59475;52.464;13.590;2022-09-09T08:03:36;23.42;69.24
71627;DHT22;59475;52.464;13.590;2022-09-09T08:06:03;23.83;66.39
71627;DHT22;59475;52.464;13.590;2022-09-09T08:08:29;23.67;62.93
71627;DHT22;59475;52.464;13.590;2022-09-09T08:11:08;23.14;62.12
71627;DHT22;59475;52.464;13.590;2022-09-09T08:13:35;22.97;63.23
71627;DHT22;59475;52.464;13.590;2022-09-09T08:16:22;22.93;64.96
71627;DHT22;59475;52.464;13.590;2022-09-09T08:18:48;23.17;62.64
71627;DHT22;59475;52.464;13.590;2022-09-09T08:21:26;23.80;63.93
71627;DHT22;59475;52.464;13.590;2022-09-09T08:23:55;23.62;61.15
71627;DHT22;59475;52.464;13.590;2022-09-09T08:26:23;23.52;62.40
71627;DHT22;59475;52.464;13.590;2022-09-09T08:28:53;23.61;62.32
71627;DHT22;59475;52.464;13.590;2022-09-09T08:31:24;23.92;61.70
71627;DHT22;59475;52.464;13.590;2022-09-09T08:33:50;24.69;61.12
71627;DHT22;59475;52.464;13.590;2022-09-09T08:36:21;24.82;59.00
71627;DHT22;59475;52.464;13.590;2022-09-09T08:38:52;24.48;57.69
71627;DHT22;59475;52.464;13.590;2022-09-09T09:07:19;21.60;67.31
71627;DHT22;59475;52.464;13.590;2022-09-09T09:12:21;21.61;67.89
71627;DHT22;59475;52.464;13.590;2022-09-09T09:14:48;21.97;67.76
71627;DHT22;59475;52.464;13.590;2022-09-09T09:17:17;22.50;65.10
71627;DHT22;59475;52.464;13.590;2022-09-09T09:19:44;22.88;64.48
71627;DHT22;59475;52.464;13.590;2022-09-09T09:22:21;23.14;64.48
71627;DHT22;59475;52.464;13.590;2022-09-09T09:27:35;23.90;60.87
71627;DHT22;59475;52.464;13.590;2022-09-09T09:30:22;24.16;59.05
71627;DHT22;59475;52.464;13.590;2022-09-09T09:33:02;24.71;59.05
71627;DHT22;59475;52.464;13.590;2022-09-09T09:35:30;25.00;58.13
71627;DHT22;59475;52.464;13.590;2022-09-09T09:37:56;25.16;56.07
71627;DHT22;59475;52.464;13.590;2022-09-09T09:40:22;25.13;56.01
71627;DHT22;59475;52.464;13.590;2022-09-09T09:43:00;25.65;55.29
71627;DHT22;59475;52.464;13.590;2022-09-09T09:45:42;25.74;54.65
71627;DHT22;59475;52.464;13.590;2022-09-09T09:48:12;26.22;54.55
71627;DHT22;59475;52.464;13.590;2022-09-09T09:50:50;26.48;54.15
71627;DHT22;59475;52.464;13.590;2022-09-09T09:53:28;26.98;51.33
71627;DHT22;59475;52.464;13.590;2022-09-09T09:56:08;27.34;50.23
71627;DHT22;59475;52.464;13.590;2022-09-09T09:58:49;27.16;51.17
71627;DHT22;59475;52.464;13.590;2022-09-09T10:04:01;27.17;50.17
71627;DHT22;59475;52.464;13.590;2022-09-09T10:06:35;27.16;50.66
71627;DHT22;59475;52.464;13.590;2022-09-09T10:09:04;27.37;49.70
71627;DHT22;59475;52.464;13.590;2022-09-09T10:11:46;27.15;50.80
71627;DHT22;59475;52.464;13.590;2022-09-09T10:14:27;26.91;50.63
71627;DHT22;59475;52.464;13.590;2022-09-09T10:19:44;27.36;49.46
71627;DHT22;59475;52.464;13.590;2022-09-09T10:22:23;27.72;50.38
71627;DHT22;59475;52.464;13.590;2022-09-09T10:25:18;28.02;47.65
71627;DHT22;59475;52.464;13.590;2022-09-09T10:28:57;27.74;48.02
71627;DHT22;59475;52.464;13.590;2022-09-09T10:31:30;26.60;50.11
71627;DHT22;59475;52.464;13.590;2022-09-09T10:34:17;26.82;50.75
71627;DHT22;59475;52.464;13.590;2022-09-09T10:36:47;26.82;50.46
71627;DHT22;59475;52.464;13.590;2022-09-09T10:39:35;26.33;53.09
71627;DHT22;59475;52.464;13.590;2022-09-09T10:42:07;25.71;52.95
71627;DHT22;59475;52.464;13.590;2022-09-09T10:52:33;24.37;58.69
71627;DHT22;59475;52.464;13.590;2022-09-09T10:55:28;24.66;58.54
71627;DHT22;59475;52.464;13.590;2022-09-09T10:57:58;24.73;58.68
71627;DHT22;59475;52.464;13.590;2022-09-09T11:00:31;24.73;56.96
71627;DHT22;59475;52.464;13.590;2022-09-09T11:03:03;25.33;55.01
71627;DHT22;59475;52.464;13.590;2022-09-09T11:05:36;26.10;53.24
71627;DHT22;59475;52.464;13.590;2022-09-09T11:08:28;26.86;51.44
71627;DHT22;59475;52.464;13.590;2022-09-09T11:16:27;27.00;50.66
71627;DHT22;59475;52.464;13.590;2022-09-09T11:18:59;26.99;50.93
71627;DHT22;59475;52.464;13.590;2022-09-09T11:21:37;26.84;50.17
71627;DHT22;59475;52.464;13.590;2022-09-09T11:24:13;27.16;49.06
71627;DHT22;59475;52.464;13.590;2022-09-09T11:26:49;26.61;49.76
71627;DHT22;59475;52.464;13.590;2022-09-09T11:29:33;26.61;50.30
71627;DHT22;59475;52.464;13.590;2022-09-09T11:35:07;26.03;51.31
71627;DHT22;59475;52.464;13.590;2022-09-09T11:37:50;25.79;52.85
71627;DHT22;59475;52.464;13.590;2022-09-09T11:40:30;25.79;52.15
71627;DHT22;59475;52.464;13.590;2022-09-09T11:43:23;25.96;53.55
71627;DHT22;59475;52.464;13.590;2022-09-09T11:45:53;26.00;52.11
71627;DHT22;59475;52.464;13.590;2022-09-09T11:50:58;25.86;53.31
71627;DHT22;59475;52.464;13.590;2022-09-09T11:53:23;25.76;53.50
71627;DHT22;59475;52.464;13.590;2022-09-09T11:56:09;25.66;52.87
71627;DHT22;59475;52.464;13.590;2022-09-09T11:58:55;25.23;52.43
71627;DHT22;59475;52.464;13.590;2022-09-09T12:01:30;24.75;54.43
71627;DHT22;59475;52.464;13.590;2022-09-09T12:04:15;24.69;54.42
71627;DHT22;59475;52.464;13.590;2022-09-09T12:09:45;24.97;54.70
71627;DHT22;59475;52.464;13.590;2022-09-09T12:17:24;24.28;55.34
71627;DHT22;59475;52.464;13.590;2022-09-09T12:20:19;24.29;55.22
71627;DHT22;59475;52.464;13.590;2022-09-09T12:29:24;24.65;55.47
71627;DHT22;59475;52.464;13.590;2022-09-09T12:34:15;24.66;53.68
71627;DHT22;59475;52.464;13.590;2022-09-09T12:36:42;24.64;53.82
71627;DHT22;59475;52.464;13.590;2022-09-09T12:39:32;24.54;54.98
71627;DHT22;59475;52.464;13.590;2022-09-09T12:41:58;24.58;55.54
71627;DHT22;59475;52.464;13.590;2022-09-09T12:44:25;24.49;55.07
71627;DHT22;59475;52.464;13.590;2022-09-09T12:46:51;24.31;54.94
71627;DHT22;59475;52.464;13.590;2022-09-09T12:49:33;24.34;54.84
71627;DHT22;59475;52.464;13.590;2022-09-09T12:52:02;24.37;55.72
71627;DHT22;59475;52.464;13.590;2022-09-09T12:54:29;24.24;55.47
71627;DHT22;59475;52.464;13.590;2022-09-09T12:56:55;24.44;56.50
71627;DHT22;59475;52.464;13.590;2022-09-09T12:59:26;24.51;55.03
71627;DHT22;59475;52.464;13.590;2022-09-09T13:01:56;24.42;54.65
71627;DHT22;59475;52.464;13.590;2022-09-09T13:04:22;24.25;53.64
71627;DHT22;59475;52.464;13.590;2022-09-09T13:06:47;24.22;54.40
71627;DHT22;59475;52.464;13.590;2022-09-09T13:09:14;24.18;55.19
71627;DHT22;59475;52.464;13.590;2022-09-09T13:11:50;24.21;54.50
71627;DHT22;59475;52.464;13.590;2022-09-09T13:14:19;24.18;54.57
71627;DHT22;59475;52.464;13.590;2022-09-09T13:16:59;24.10;56.08
71627;DHT22;59475;52.464;13.590;2022-09-09T13:19:25;24.08;55.26
71627;DHT22;59475;52.464;13.590;2022-09-09T13:21:53;24.13;55.16
71627;DHT22;59475;52.464;13.590;2022-09-09T13:27:17;24.14;55.72
71627;DHT22;59475;52.464;13.590;2022-09-09T13:29:51;24.13;54.61
71627;DHT22;59475;52.464;13.590;2022-09-09T13:32:20;24.21;56.71
71627;DHT22;59475;52.464;13.590;2022-09-09T13:34:57;24.31;54.50
71627;DHT22;59475;52.464;13.590;2022-09-09T13:37:23;24.42;54.05
71627;DHT22;59475;52.464;13.590;2022-09-09T13:39:52;24.39;55.00
71627;DHT22;59475;52.464;13.590;2022-09-09T13:42:29;24.32;54.22
71627;DHT22;59475;52.464;13.590;2022-09-09T13:44:58;24.10;55.14
71627;DHT22;59475;52.464;13.590;2022-09-09T13:49:53;23.90;55.82
71627;DHT22;59475;52.464;13.590;2022-09-09T13:52:19;23.79;55.60
71627;DHT22;59475;52.464;13.590;2022-09-09T13:54:51;23.67;54.96
71627;DHT22;59475;52.464;13.590;2022-09-09T13:57:19;23.59;56.61
71627;DHT22;59475;52.464;13.590;2022-09-09T13:59:46;23.46;55.92
71627;DHT22;59475;52.464;13.590;2022-09-09T14:02:11;23.42;56.62
71627;DHT22;59475;52.464;13.590;2022-09-09T14:04:37;23.34;56.72
71627;DHT22;59475;52.464;13.590;2022-09-09T14:07:03;23.25;57.01
71627;DHT22;59475;52.464;13.590;2022-09-09T14:09:28;23.17;57.48
71627;DHT22;59475;52.464;13.590;2022-09-09T14:11:53;23.15;57.92
71627;DHT22;59475;52.464;13.590;2022-09-09T14:14:20;23.12;58.74
71627;DHT22;59475;52.464;13.590;2022-09-09T14:16:45;23.11;58.97
71627;DHT22;59475;52.464;13.590;2022-09-09T14:19:11;23.03;59.02
71627;DHT22;59475;52.464;13.590;2022-09-09T14:21:36;22.90;59.78
71627;DHT22;59475;52.464;13.590;2022-09-09T14:24:02;22.83;59.23
71627;DHT22;59475;52.464;13.590;2022-09-09T14:26:28;22.83;60.45
71627;DHT22;59475;52.464;13.590;2022-09-09T14:28:54;22.87;59.43
71627;DHT22;59475;52.464;13.590;2022-09-09T14:31:20;22.96;59.82
71627;DHT22;59475;52.464;13.590;2022-09-09T14:33:46;23.11;60.23
71627;DHT22;59475;52.464;13.590;2022-09-09T14:36:11;23.21;58.38
71627;DHT22;59475;52.464;13.590;2022-09-09T14:38:38;23.45;58.21
71627;DHT22;59475;52.464;13.590;2022-09-09T14:41:05;23.67;58.08
71627;DHT22;59475;52.464;13.590;2022-09-09T14:43:31;23.89;56.93
71627;DHT22;59475;52.464;13.590;2022-09-09T14:46:03;23.96;56.91
71627;DHT22;59475;52.464;13.590;2022-09-09T14:48:30;23.96;57.56
71627;DHT22;59475;52.464;13.590;2022-09-09T14:50:56;23.94;57.40
71627;DHT22;59475;52.464;13.590;2022-09-09T14:53:21;23.96;57.04
71627;DHT22;59475;52.464;13.590;2022-09-09T14:55:47;23.96;57.42
71627;DHT22;59475;52.464;13.590;2022-09-09T14:58:12;24.00;56.81
71627;DHT22;59475;52.464;13.590;2022-09-09T15:00:38;23.97;56.41
71627;DHT22;59475;52.464;13.590;2022-09-09T15:03:04;23.89;57.21
71627;DHT22;59475;52.464;13.590;2022-09-09T15:05:29;23.70;58.63
71627;DHT22;59475;52.464;13.590;2022-09-09T15:07:57;23.62;58.79
71627;DHT22;59475;52.464;13.590;2022-09-09T15:10:23;23.52;60.47
71627;DHT22;59475;52.464;13.590;2022-09-09T15:12:49;23.42;60.51
71627;DHT22;59475;52.464;13.590;2022-09-09T15:15:14;23.49;60.29
71627;DHT22;59475;52.464;13.590;2022-09-09T15:17:39;23.44;60.77
71627;DHT22;59475;52.464;13.590;2022-09-09T15:20:05;23.45;61.25
71627;DHT22;59475;52.464;13.590;2022-09-09T15:22:31;23.39;61.17
71627;DHT22;59475;52.464;13.590;2022-09-09T15:24:56;23.24;61.00
71627;DHT22;59475;52.464;13.590;2022-09-09T15:27:22;23.15;61.55
71627;DHT22;59475;52.464;13.590;2022-09-09T15:29:49;23.11;62.49
71627;DHT22;59475;52.464;13.590;2022-09-09T15:32:15;23.10;61.20
71627;DHT22;59475;52.464;13.590;2022-09-09T15:34:40;23.14;62.24
71627;DHT22;59475;52.464;13.590;2022-09-09T15:37:06;23.18;61.05
71627;DHT22;59475;52.464;13.590;2022-09-09T15:39:32;23.24;60.34
71627;DHT22;59475;52.464;13.590;2022-09-09T15:41:57;23.28;59.14
71627;DHT22;59475;52.464;13.590;2022-09-09T15:44:22;23.22;58.50
71627;DHT22;59475;52.464;13.590;2022-09-09T15:46:51;23.18;59.91
71627;DHT22;59475;52.464;13.590;2022-09-09T15:49:23;23.15;60.98
71627;DHT22;59475;52.464;13.590;2022-09-09T15:51:54;23.15;62.07
71627;DHT22;59475;52.464;13.590;2022-09-09T15:54:22;23.11;59.81
71627;DHT22;59475;52.464;13.590;2022-09-09T15:56:54;23.05;61.26
71627;DHT22;59475;52.464;13.590;2022-09-09T15:59:21;23.03;61.15
71627;DHT22;59475;52.464;13.590;2022-09-09T16:01:48;23.01;60.92
71627;DHT22;59475;52.464;13.590;2022-09-09T16:04:19;23.03;61.70
71627;DHT22;59475;52.464;13.590;2022-09-09T16:07:04;23.03;62.03
71627;DHT22;59475;52.464;13.590;2022-09-09T16:09:32;23.10;62.39
71627;DHT22;59475;52.464;13.590;2022-09-09T16:11:59;23.10;61.95
71627;DHT22;59475;52.464;13.590;2022-09-09T16:14:26;23.03;62.43
71627;DHT22;59475;52.464;13.590;2022-09-09T16:16:52;22.86;63.05
71627;DHT22;59475;52.464;13.590;2022-09-09T16:19:17;22.66;64.39
71627;DHT22;59475;52.464;13.590;2022-09-09T16:21:48;22.38;65.39
71627;DHT22;59475;52.464;13.590;2022-09-09T16:24:15;22.08;66.13
71627;DHT22;59475;52.464;13.590;2022-09-09T16:26:43;21.85;67.46
71627;DHT22;59475;52.464;13.590;2022-09-09T16:29:13;21.70;68.11
71627;DHT22;59475;52.464;13.590;2022-09-09T16:31:39;21.53;68.63
71627;DHT22;59475;52.464;13.590;2022-09-09T16:34:05;21.42;68.31
71627;DHT22;59475;52.464;13.590;2022-09-09T16:36:32;21.30;69.32
71627;DHT22;59475;52.464;13.590;2022-09-09T16:39:04;21.09;69.12
71627;DHT22;59475;52.464;13.590;2022-09-09T16:41:30;20.99;69.63
71627;DHT22;59475;52.464;13.590;2022-09-09T16:44:00;20.84;69.82
71627;DHT22;59475;52.464;13.590;2022-09-09T16:46:28;20.67;69.30
71627;DHT22;59475;52.464;13.590;2022-09-09T16:48:58;20.44;68.35
71627;DHT22;59475;52.464;13.590;2022-09-09T16:51:25;20.29;68.18
71627;DHT22;59475;52.464;13.590;2022-09-09T16:53:52;20.16;68.70
71627;DHT22;59475;52.464;13.590;2022-09-09T16:56:20;20.05;67.70
71627;DHT22;59475;52.464;13.590;2022-09-09T16:58:54;19.93;67.02
71627;DHT22;59475;52.464;13.590;2022-09-09T17:01:21;19.82;65.38
71627;DHT22;59475;52.464;13.590;2022-09-09T17:03:46;19.70;65.57
71627;DHT22;59475;52.464;13.590;2022-09-09T17:06:13;19.58;64.50
71627;DHT22;59475;52.464;13.590;2022-09-09T17:08:39;19.51;64.38
71627;DHT22;59475;52.464;13.590;2022-09-09T17:11:18;19.36;64.57
71627;DHT22;59475;52.464;13.590;2022-09-09T17:13:45;19.24;64.06
71627;DHT22;59475;52.464;13.590;2022-09-09T17:16:11;19.15;64.36
71627;DHT22;59475;52.464;13.590;2022-09-09T17:18:36;19.10;64.88
71627;DHT22;59475;52.464;13.590;2022-09-09T17:21:06;19.02;65.17
71627;DHT22;59475;52.464;13.590;2022-09-09T17:23:34;18.98;65.89
71627;DHT22;59475;52.464;13.590;2022-09-09T17:26:03;18.89;66.64